sensor_id;sensor_type;location;lat;lon;timestamp;pressure;altitude;pressure_sealevel;temperature;humidity
13581;BME280;6861;46.170;7.222;2023-02-02T00:02:26;97049.59;;;6.72;52.64
13581;BME280;6861;46.170;7.222;2023-02-02T00:04:54;97041.34;;;6.75;51.29
13581;BME280;6861;46.170;7.222;2023-02-02T00:07:24;97043.75;;;6.76;51.63
13581;BME280;6861;46.170;7.222;2023-02-02T00:09:52;97035.72;;;6.78;52.36
13581;BME280;6861;46.170;7.222;2023-02-02T00:12:20;97052.78;;;6.74;51.34
13581;BME280;6861;46.170;7.222;2023-02-02T00:14:49;97039.19;;;6.72;52.08
13581;BME280;6861;46.170;7.222;2023-02-02T00:17:17;97032.97;;;6.73;51.60
13581;BME280;6861;46.170;7.222;2023-02-02T00:19:45;97036.38;;;6.73;52.07
13581;BME280;6861;46.170;7.222;2023-02-02T00:22:14;97024.31;;;6.79;51.20
13581;BME280;6861;46.170;7.222;2023-02-02T00:24:42;97031.09;;;6.80;51.21
13581;BME280;6861;46.170;7.222;2023-02-02T00:27:10;97037.09;;;6.80;51.45
13581;BME280;6861;46.170;7.222;2023-02-02T00:29:38;97022.09;;;6.82;51.57
13581;BME280;6861;46.170;7.222;2023-02-02T00:32:08;97035.09;;;6.82;51.14
13581;BME280;6861;46.170;7.222;2023-02-02T00:34:36;97041.09;;;6.83;51.45
13581;BME280;6861;46.170;7.222;2023-02-02T00:37:04;97046.06;;;6.84;50.92
13581;BME280;6861;46.170;7.222;2023-02-02T00:39:32;97050.63;;;6.89;50.89
13581;BME280;6861;46.170;7.222;2023-02-02T00:42:00;97059.44;;;6.88;50.25
13581;BME280;6861;46.170;7.222;2023-02-02T00:44:28;97047.31;;;6.82;51.56
13581;BME280;6861;46.170;7.222;2023-02-02T00:47:15;97064.72;;;6.81;51.10
13581;BME280;6861;46.170;7.222;2023-02-02T00:49:43;97062.91;;;6.82;51.32
13581;BME280;6861;46.170;7.222;2023-02-02T00:52:12;97052.28;;;6.83;50.73
13581;BME280;6861;46.170;7.222;2023-02-02T00:54:40;97053.09;;;6.84;51.08
13581;BME280;6861;46.170;7.222;2023-02-02T00:57:09;97041.09;;;6.83;49.87
13581;BME280;6861;46.170;7.222;2023-02-02T00:59:39;97046.28;;;6.83;50.96
13581;BME280;6861;46.170;7.222;2023-02-02T01:02:08;97047.44;;;6.87;50.35
13581;BME280;6861;46.170;7.222;2023-02-02T01:04:38;97049.47;;;6.85;51.16
13581;BME280;6861;46.170;7.222;2023-02-02T01:07:06;97055.09;;;6.82;50.07
13581;BME280;6861;46.170;7.222;2023-02-02T01:09:34;97047.88;;;6.84;51.43
13581;BME280;6861;46.170;7.222;2023-02-02T01:12:02;97048.84;;;6.89;50.07
13581;BME280;6861;46.170;7.222;2023-02-02T01:14:30;97053.38;;;6.94;50.13
13581;BME280;6861;46.170;7.222;2023-02-02T01:16:58;97053.59;;;6.93;50.30
13581;BME280;6861;46.170;7.222;2023-02-02T01:19:26;97060.03;;;6.90;51.20
13581;BME280;6861;46.170;7.222;2023-02-02T01:21:55;97074.63;;;6.91;50.63
13581;BME280;6861;46.170;7.222;2023-02-02T01:24:23;97076.44;;;6.90;50.53
13581;BME280;6861;46.170;7.222;2023-02-02T01:26:51;97061.41;;;6.93;51.32
13581;BME280;6861;46.170;7.222;2023-02-02T01:29:19;97067.41;;;6.93;50.59
13581;BME280;6861;46.170;7.222;2023-02-02T01:31:48;97063.44;;;6.90;50.48
13581;BME280;6861;46.170;7.222;2023-02-02T01:34:16;97072.63;;;6.93;50.78
13581;BME280;6861;46.170;7.222;2023-02-02T01:36:44;97076.94;;;6.99;50.06
13581;BME280;6861;46.170;7.222;2023-02-02T01:39:13;97083.69;;;7.07;50.48
13581;BME280;6861;46.170;7.222;2023-02-02T01:41:41;97078.41;;;7.13;49.77
13581;BME280;6861;46.170;7.222;2023-02-02T01:47:11;97066.41;;;7.12;50.00
13581;BME280;6861;46.170;7.222;2023-02-02T01:49:42;97069.00;;;7.12;49.65
13581;BME280;6861;46.170;7.222;2023-02-02T01:52:12;97069.00;;;7.12;49.85
13581;BME280;6861;46.170;7.222;2023-02-02T01:54:45;97067.56;;;7.16;50.68
13581;BME280;6861;46.170;7.222;2023-02-02T01:57:22;97070.31;;;7.21;50.90
13581;BME280;6861;46.170;7.222;2023-02-02T01:59:53;97069.09;;;7.24;49.55
13581;BME280;6861;46.170;7.222;2023-02-02T02:02:23;97064.31;;;7.21;50.20
13581;BME280;6861;46.170;7.222;2023-02-02T02:04:52;97081.97;;;7.19;50.76
13581;BME280;6861;46.170;7.222;2023-02-02T02:07:22;97075.97;;;7.18;49.45
13581;BME280;6861;46.170;7.222;2023-02-02T02:09:52;97074.22;;;7.12;49.92
13581;BME280;6861;46.170;7.222;2023-02-02T02:12:20;97073.56;;;7.17;49.72
13581;BME280;6861;46.170;7.222;2023-02-02T02:14:49;97070.09;;;7.23;49.50
13581;BME280;6861;46.170;7.222;2023-02-02T02:17:44;97066.13;;;7.20;49.20
13581;BME280;6861;46.170;7.222;2023-02-02T02:20:31;97073.00;;;7.15;50.02
13581;BME280;6861;46.170;7.222;2023-02-02T02:27:18;97079.88;;;7.28;49.29
13581;BME280;6861;46.170;7.222;2023-02-02T02:30:11;97082.63;;;7.33;50.13
13581;BME280;6861;46.170;7.222;2023-02-02T02:32:49;97083.22;;;7.35;48.88
13581;BME280;6861;46.170;7.222;2023-02-02T02:35:27;97078.00;;;7.35;49.50
13581;BME280;6861;46.170;7.222;2023-02-02T02:38:01;97088.13;;;7.43;48.60
13581;BME280;6861;46.170;7.222;2023-02-02T02:40:35;97090.09;;;7.47;48.74
13581;BME280;6861;46.170;7.222;2023-02-02T02:43:07;97092.91;;;7.46;49.49
13581;BME280;6861;46.170;7.222;2023-02-02T02:45:40;97090.88;;;7.48;49.25
13581;BME280;6861;46.170;7.222;2023-02-02T02:48:12;97088.84;;;7.50;48.86
13581;BME280;6861;46.170;7.222;2023-02-02T02:50:40;97093.63;;;7.53;48.67
13581;BME280;6861;46.170;7.222;2023-02-02T02:53:12;97088.22;;;7.54;48.99
13581;BME280;6861;46.170;7.222;2023-02-02T02:55:54;97086.41;;;7.55;48.90
13581;BME280;6861;46.170;7.222;2023-02-02T02:58:31;97083.06;;;7.48;49.17
13581;BME280;6861;46.170;7.222;2023-02-02T03:01:09;97092.53;;;7.42;49.86
13581;BME280;6861;46.170;7.222;2023-02-02T03:03:52;97081.31;;;7.42;49.64
13581;BME280;6861;46.170;7.222;2023-02-02T03:06:28;97092.75;;;7.41;49.21
13581;BME280;6861;46.170;7.222;2023-02-02T03:09:02;97085.38;;;7.38;50.05
13581;BME280;6861;46.170;7.222;2023-02-02T03:11:33;97078.50;;;7.43;48.77
13581;BME280;6861;46.170;7.222;2023-02-02T03:14:01;97074.81;;;7.51;48.84
13581;BME280;6861;46.170;7.222;2023-02-02T03:16:32;97073.94;;;7.57;49.08
13581;BME280;6861;46.170;7.222;2023-02-02T03:19:02;97083.94;;;7.60;49.22
13581;BME280;6861;46.170;7.222;2023-02-02T03:21:31;97066.72;;;7.59;48.18
13581;BME280;6861;46.170;7.222;2023-02-02T03:23:59;97075.97;;;7.55;48.76
13581;BME280;6861;46.170;7.222;2023-02-02T03:26:28;97078.66;;;7.48;48.31
13581;BME280;6861;46.170;7.222;2023-02-02T03:28:56;97073.94;;;7.39;48.33
13581;BME280;6861;46.170;7.222;2023-02-02T03:31:25;97086.25;;;7.32;49.79
13581;BME280;6861;46.170;7.222;2023-02-02T03:33:55;97077.47;;;7.26;49.91
13581;BME280;6861;46.170;7.222;2023-02-02T03:36:25;97073.28;;;7.25;49.89
13581;BME280;6861;46.170;7.222;2023-02-02T03:38:53;97061.28;;;7.24;48.41
13581;BME280;6861;46.170;7.222;2023-02-02T03:41:21;97077.91;;;7.23;49.13
13581;BME280;6861;46.170;7.222;2023-02-02T03:43:49;97072.94;;;7.21;48.47
13581;BME280;6861;46.170;7.222;2023-02-02T03:46:17;97072.34;;;7.19;48.75
13581;BME280;6861;46.170;7.222;2023-02-02T03:48:45;97075.97;;;7.18;49.02
13581;BME280;6861;46.170;7.222;2023-02-02T03:51:13;97077.97;;;7.16;48.86
13581;BME280;6861;46.170;7.222;2023-02-02T03:53:43;97076.38;;;7.15;49.10
13581;BME280;6861;46.170;7.222;2023-02-02T03:56:13;97075.59;;;7.15;48.41
13581;BME280;6861;46.170;7.222;2023-02-02T03:58:42;97074.78;;;7.14;49.12
13581;BME280;6861;46.170;7.222;2023-02-02T04:01:12;97068.44;;;7.10;49.84
13581;BME280;6861;46.170;7.222;2023-02-02T04:03:41;97075.50;;;7.03;49.51
13581;BME280;6861;46.170;7.222;2023-02-02T04:06:09;97086.34;;;7.00;49.51
13581;BME280;6861;46.170;7.222;2023-02-02T04:08:37;97081.34;;;6.99;49.64
13581;BME280;6861;46.170;7.222;2023-02-02T04:11:09;97089.78;;;6.94;49.37
13581;BME280;6861;46.170;7.222;2023-02-02T04:13:37;97088.28;;;6.86;49.30
13581;BME280;6861;46.170;7.222;2023-02-02T04:16:09;97087.91;;;6.83;50.42
13581;BME280;6861;46.170;7.222;2023-02-02T04:18:41;97088.34;;;6.80;50.01
13581;BME280;6861;46.170;7.222;2023-02-02T04:21:09;97087.16;;;6.76;49.89
13581;BME280;6861;46.170;7.222;2023-02-02T04:23:37;97089.19;;;6.74;49.77
13581;BME280;6861;46.170;7.222;2023-02-02T04:26:05;97092.00;;;6.72;50.50
13581;BME280;6861;46.170;7.222;2023-02-02T04:28:35;97107.81;;;6.71;50.82
13581;BME280;6861;46.170;7.222;2023-02-02T04:31:03;97114.03;;;6.70;50.94
13581;BME280;6861;46.170;7.222;2023-02-02T04:33:33;97122.28;;;6.60;49.67
13581;BME280;6861;46.170;7.222;2023-02-02T04:36:02;97117.34;;;6.52;49.95
13581;BME280;6861;46.170;7.222;2023-02-02T04:38:30;97113.78;;;6.46;50.37
13581;BME280;6861;46.170;7.222;2023-02-02T04:41:05;97108.41;;;6.41;50.76
13581;BME280;6861;46.170;7.222;2023-02-02T04:43:35;97115.47;;;6.34;51.31
13581;BME280;6861;46.170;7.222;2023-02-02T04:46:04;97111.25;;;6.33;50.48
13581;BME280;6861;46.170;7.222;2023-02-02T04:48:32;97124.25;;;6.33;50.94
13581;BME280;6861;46.170;7.222;2023-02-02T04:51:01;97112.69;;;6.29;50.98
13581;BME280;6861;46.170;7.222;2023-02-02T04:53:30;97121.09;;;6.24;51.48
13581;BME280;6861;46.170;7.222;2023-02-02T04:56:04;97130.28;;;6.27;51.10
13581;BME280;6861;46.170;7.222;2023-02-02T04:58:32;97132.25;;;6.32;50.62
13581;BME280;6861;46.170;7.222;2023-02-02T05:01:07;97129.63;;;6.38;50.48
13581;BME280;6861;46.170;7.222;2023-02-02T05:03:35;97131.00;;;6.41;50.27
13581;BME280;6861;46.170;7.222;2023-02-02T05:06:04;97140.63;;;6.40;50.98
13581;BME280;6861;46.170;7.222;2023-02-02T05:08:33;97141.41;;;6.41;50.45
13581;BME280;6861;46.170;7.222;2023-02-02T05:11:05;97139.03;;;6.39;50.36
13581;BME280;6861;46.170;7.222;2023-02-02T05:13:34;97144.63;;;6.36;50.88
13581;BME280;6861;46.170;7.222;2023-02-02T05:16:05;97150.84;;;6.35;50.23
13581;BME280;6861;46.170;7.222;2023-02-02T05:18:33;97147.25;;;6.36;51.50
13581;BME280;6861;46.170;7.222;2023-02-02T05:21:02;97152.66;;;6.35;50.33
13581;BME280;6861;46.170;7.222;2023-02-02T05:23:30;97157.84;;;6.35;50.23
13581;BME280;6861;46.170;7.222;2023-02-02T05:25:58;97155.66;;;6.32;50.41
13581;BME280;6861;46.170;7.222;2023-02-02T05:28:26;97165.06;;;6.33;51.29
13581;BME280;6861;46.170;7.222;2023-02-02T05:30:54;97172.22;;;6.37;50.88
13581;BME280;6861;46.170;7.222;2023-02-02T05:33:24;97179.63;;;6.40;50.33
13581;BME280;6861;46.170;7.222;2023-02-02T05:35:52;97195.41;;;6.39;50.40
13581;BME280;6861;46.170;7.222;2023-02-02T05:38:20;97196.22;;;6.39;50.11
13581;BME280;6861;46.170;7.222;2023-02-02T05:40:48;97193.63;;;6.39;50.25
13581;BME280;6861;46.170;7.222;2023-02-02T05:43:16;97194.03;;;6.36;50.96
13581;BME280;6861;46.170;7.222;2023-02-02T05:45:47;97196.69;;;6.23;50.36
13581;BME280;6861;46.170;7.222;2023-02-02T05:48:15;97189.91;;;6.15;50.60
13581;BME280;6861;46.170;7.222;2023-02-02T05:50:46;97203.72;;;6.16;50.78
13581;BME280;6861;46.170;7.222;2023-02-02T05:53:15;97208.91;;;6.16;51.24
13581;BME280;6861;46.170;7.222;2023-02-02T05:55:43;97203.31;;;6.19;50.28
13581;BME280;6861;46.170;7.222;2023-02-02T05:58:11;97207.91;;;6.17;50.99
13581;BME280;6861;46.170;7.222;2023-02-02T06:00:39;97217.50;;;6.16;51.44
13581;BME280;6861;46.170;7.222;2023-02-02T06:03:07;97216.69;;;6.16;50.29
13581;BME280;6861;46.170;7.222;2023-02-02T06:05:36;97216.88;;;6.21;50.15
13581;BME280;6861;46.170;7.222;2023-02-02T06:08:05;97224.25;;;6.31;51.10
13581;BME280;6861;46.170;7.222;2023-02-02T06:10:33;97220.63;;;6.38;51.06
13581;BME280;6861;46.170;7.222;2023-02-02T06:13:01;97233.84;;;6.30;50.60
13581;BME280;6861;46.170;7.222;2023-02-02T06:15:29;97217.53;;;6.10;50.11
13581;BME280;6861;46.170;7.222;2023-02-02T06:17:58;97217.00;;;5.95;51.32
13581;BME280;6861;46.170;7.222;2023-02-02T06:20:27;97214.41;;;5.95;50.49
13581;BME280;6861;46.170;7.222;2023-02-02T06:22:55;97212.81;;;5.94;50.74
13581;BME280;6861;46.170;7.222;2023-02-02T06:25:24;97218.78;;;5.87;50.49
13581;BME280;6861;46.170;7.222;2023-02-02T06:27:54;97216.59;;;5.84;50.54
13581;BME280;6861;46.170;7.222;2023-02-02T06:30:22;97212.00;;;5.80;50.16
13581;BME280;6861;46.170;7.222;2023-02-02T06:32:50;97209.63;;;5.78;50.26
13581;BME280;6861;46.170;7.222;2023-02-02T06:35:19;97215.81;;;5.77;50.21
13581;BME280;6861;46.170;7.222;2023-02-02T06:37:47;97224.22;;;5.73;49.97
13581;BME280;6861;46.170;7.222;2023-02-02T06:40:15;97229.63;;;5.65;50.06
13581;BME280;6861;46.170;7.222;2023-02-02T06:42:45;97230.41;;;5.58;49.96
13581;BME280;6861;46.170;7.222;2023-02-02T06:45:13;97228.81;;;5.57;50.52
13581;BME280;6861;46.170;7.222;2023-02-02T06:47:41;97234.00;;;5.57;49.82
13581;BME280;6861;46.170;7.222;2023-02-02T06:50:10;97225.44;;;5.57;50.71
13581;BME280;6861;46.170;7.222;2023-02-02T06:52:38;97234.41;;;5.61;50.04
13581;BME280;6861;46.170;7.222;2023-02-02T06:55:06;97238.00;;;5.67;50.70
13581;BME280;6861;46.170;7.222;2023-02-02T06:57:35;97245.00;;;5.66;49.77
13581;BME280;6861;46.170;7.222;2023-02-02T07:00:09;97244.78;;;5.61;50.24
13581;BME280;6861;46.170;7.222;2023-02-02T07:02:37;97242.00;;;5.56;50.35
13581;BME280;6861;46.170;7.222;2023-02-02T07:05:06;97246.81;;;5.46;50.67
13581;BME280;6861;46.170;7.222;2023-02-02T07:07:34;97246.19;;;5.44;50.67
13581;BME280;6861;46.170;7.222;2023-02-02T07:10:02;97248.78;;;5.44;50.60
13581;BME280;6861;46.170;7.222;2023-02-02T07:12:30;97256.19;;;5.47;50.62
13581;BME280;6861;46.170;7.222;2023-02-02T07:14:58;97266.38;;;5.55;50.29
13581;BME280;6861;46.170;7.222;2023-02-02T07:17:28;97264.38;;;5.64;50.12
13581;BME280;6861;46.170;7.222;2023-02-02T07:19:56;97266.56;;;5.73;49.57
13581;BME280;6861;46.170;7.222;2023-02-02T07:22:24;97272.16;;;5.77;50.14
13581;BME280;6861;46.170;7.222;2023-02-02T07:24:52;97261.56;;;5.78;50.22
13581;BME280;6861;46.170;7.222;2023-02-02T07:27:20;97272.94;;;5.77;50.37
13581;BME280;6861;46.170;7.222;2023-02-02T07:29:48;97267.56;;;5.72;50.65
13581;BME280;6861;46.170;7.222;2023-02-02T07:32:16;97268.75;;;5.76;50.66
13581;BME280;6861;46.170;7.222;2023-02-02T07:34:46;97273.94;;;5.76;50.38
13581;BME280;6861;46.170;7.222;2023-02-02T07:37:14;97265.56;;;5.68;51.04
13581;BME280;6861;46.170;7.222;2023-02-02T07:39:42;97265.97;;;5.65;50.72
13581;BME280;6861;46.170;7.222;2023-02-02T07:42:10;97270.34;;;5.64;50.94
13581;BME280;6861;46.170;7.222;2023-02-02T07:44:38;97269.56;;;5.57;51.33
13581;BME280;6861;46.170;7.222;2023-02-02T07:47:07;97272.97;;;5.57;51.07
13581;BME280;6861;46.170;7.222;2023-02-02T07:49:35;97275.16;;;5.54;50.78
13581;BME280;6861;46.170;7.222;2023-02-02T07:52:04;97280.34;;;5.54;51.53
13581;BME280;6861;46.170;7.222;2023-02-02T07:54:32;97273.56;;;5.53;50.85
13581;BME280;6861;46.170;7.222;2023-02-02T07:57:00;97271.75;;;5.47;51.68
13581;BME280;6861;46.170;7.222;2023-02-02T07:59:28;97275.16;;;5.41;51.67
13581;BME280;6861;46.170;7.222;2023-02-02T08:01:58;97275.75;;;5.36;51.33
13581;BME280;6861;46.170;7.222;2023-02-02T08:04:26;97281.94;;;5.42;51.30
13581;BME280;6861;46.170;7.222;2023-02-02T08:06:54;97275.56;;;5.51;51.75
13581;BME280;6861;46.170;7.222;2023-02-02T08:09:24;97273.56;;;5.59;51.68
13581;BME280;6861;46.170;7.222;2023-02-02T08:11:52;97274.94;;;5.69;50.77
13581;BME280;6861;46.170;7.222;2023-02-02T08:14:20;97277.13;;;5.78;50.87
13581;BME280;6861;46.170;7.222;2023-02-02T08:16:48;97276.75;;;5.81;50.86
13581;BME280;6861;46.170;7.222;2023-02-02T08:19:16;97282.31;;;5.85;51.05
13581;BME280;6861;46.170;7.222;2023-02-02T08:21:44;97281.75;;;5.89;50.79
13581;BME280;6861;46.170;7.222;2023-02-02T08:24:12;97279.16;;;5.89;51.68
13581;BME280;6861;46.170;7.222;2023-02-02T08:26:42;97273.13;;;5.82;51.68
13581;BME280;6861;46.170;7.222;2023-02-02T08:29:11;97272.53;;;5.80;51.56
13581;BME280;6861;46.170;7.222;2023-02-02T08:31:43;97268.34;;;5.79;51.26
13581;BME280;6861;46.170;7.222;2023-02-02T08:34:11;97267.94;;;5.82;51.87
13581;BME280;6861;46.170;7.222;2023-02-02T08:36:40;97257.94;;;5.86;51.76
13581;BME280;6861;46.170;7.222;2023-02-02T08:39:10;97263.56;;;5.89;51.37
13581;BME280;6861;46.170;7.222;2023-02-02T08:41:39;97266.34;;;5.95;51.31
13581;BME280;6861;46.170;7.222;2023-02-02T08:44:10;97251.38;;;5.97;51.21
13581;BME280;6861;46.170;7.222;2023-02-02T08:46:38;97262.34;;;5.99;51.38
13581;BME280;6861;46.170;7.222;2023-02-02T08:49:09;97253.56;;;6.00;50.76
13581;BME280;6861;46.170;7.222;2023-02-02T08:51:37;97267.56;;;5.99;50.60
13581;BME280;6861;46.170;7.222;2023-02-02T08:54:06;97259.16;;;5.97;51.56
13581;BME280;6861;46.170;7.222;2023-02-02T08:56:34;97263.97;;;5.93;50.97
13581;BME280;6861;46.170;7.222;2023-02-02T08:59:03;97251.97;;;5.85;51.36
13581;BME280;6861;46.170;7.222;2023-02-02T09:01:34;97261.16;;;5.81;51.33
13581;BME280;6861;46.170;7.222;2023-02-02T09:04:03;97253.97;;;5.83;51.06
13581;BME280;6861;46.170;7.222;2023-02-02T09:06:33;97254.34;;;5.87;51.48
13581;BME280;6861;46.170;7.222;2023-02-02T09:09:02;97245.97;;;5.91;51.67
13581;BME280;6861;46.170;7.222;2023-02-02T09:11:31;97252.38;;;5.96;51.67
13581;BME280;6861;46.170;7.222;2023-02-02T09:13:59;97253.94;;;6.03;50.75
13581;BME280;6861;46.170;7.222;2023-02-02T09:16:28;97252.31;;;6.09;50.74
13581;BME280;6861;46.170;7.222;2023-02-02T09:18:58;97262.28;;;6.12;51.07
13581;BME280;6861;46.170;7.222;2023-02-02T09:21:26;97262.47;;;6.17;51.10
13581;BME280;6861;46.170;7.222;2023-02-02T09:23:54;97270.25;;;6.23;51.46
13581;BME280;6861;46.170;7.222;2023-02-02T09:26:24;97266.44;;;6.33;50.85
13581;BME280;6861;46.170;7.222;2023-02-02T09:28:54;97269.00;;;6.39;50.35
13581;BME280;6861;46.170;7.222;2023-02-02T09:31:23;97269.78;;;6.46;51.16
13581;BME280;6861;46.170;7.222;2023-02-02T09:33:51;97267.97;;;6.53;50.38
13581;BME280;6861;46.170;7.222;2023-02-02T09:36:22;97264.94;;;6.56;50.15
13581;BME280;6861;46.170;7.222;2023-02-02T09:38:53;97259.75;;;6.56;49.90
13581;BME280;6861;46.170;7.222;2023-02-02T09:41:46;97260.09;;;6.67;50.43
13581;BME280;6861;46.170;7.222;2023-02-02T09:44:26;97252.06;;;6.75;50.90
13581;BME280;6861;46.170;7.222;2023-02-02T09:47:07;97253.22;;;6.79;49.67
13581;BME280;6861;46.170;7.222;2023-02-02T09:49:48;97253.63;;;6.82;50.38
13581;BME280;6861;46.170;7.222;2023-02-02T09:52:25;97249.78;;;6.85;49.59
13581;BME280;6861;46.170;7.222;2023-02-02T09:54:58;97246.19;;;6.86;50.63
13581;BME280;6861;46.170;7.222;2023-02-02T09:57:36;97239.97;;;6.87;50.03
13581;BME280;6861;46.170;7.222;2023-02-02T10:00:06;97245.19;;;6.87;50.09
13581;BME280;6861;46.170;7.222;2023-02-02T10:02:44;97236.38;;;6.88;50.71
13581;BME280;6861;46.170;7.222;2023-02-02T10:05:16;97236.38;;;6.88;50.19
13581;BME280;6861;46.170;7.222;2023-02-02T10:07:51;97236.59;;;6.86;50.58
13581;BME280;6861;46.170;7.222;2023-02-02T10:10:25;97232.75;;;6.89;49.27
13581;BME280;6861;46.170;7.222;2023-02-02T10:13:00;97226.56;;;6.90;50.04
13581;BME280;6861;46.170;7.222;2023-02-02T10:15:34;97234.34;;;6.90;49.92
13581;BME280;6861;46.170;7.222;2023-02-02T10:18:10;97231.97;;;6.88;49.56
13581;BME280;6861;46.170;7.222;2023-02-02T10:20:44;97228.56;;;6.88;49.69
13581;BME280;6861;46.170;7.222;2023-02-02T10:23:22;97227.94;;;6.93;49.87
13581;BME280;6861;46.170;7.222;2023-02-02T10:25:56;97228.28;;;6.96;49.51
13581;BME280;6861;46.170;7.222;2023-02-02T10:28:34;97229.88;;;6.97;49.28
13581;BME280;6861;46.170;7.222;2023-02-02T10:31:14;97223.47;;;7.00;48.81
13581;BME280;6861;46.170;7.222;2023-02-02T10:33:53;97228.25;;;7.03;49.82
13581;BME280;6861;46.170;7.222;2023-02-02T10:36:34;97215.44;;;7.01;49.29
13581;BME280;6861;46.170;7.222;2023-02-02T10:39:18;97208.66;;;7.00;49.29
13581;BME280;6861;46.170;7.222;2023-02-02T10:42:00;97214.44;;;7.02;48.73
13581;BME280;6861;46.170;7.222;2023-02-02T10:44:36;97223.41;;;7.06;49.06
13581;BME280;6861;46.170;7.222;2023-02-02T10:47:10;97212.59;;;7.09;48.88
13581;BME280;6861;46.170;7.222;2023-02-02T10:49:40;97216.16;;;7.15;48.41
13581;BME280;6861;46.170;7.222;2023-02-02T10:52:14;97222.53;;;7.19;48.82
13581;BME280;6861;46.170;7.222;2023-02-02T10:54:51;97218.88;;;7.27;48.64
13581;BME280;6861;46.170;7.222;2023-02-02T10:57:33;97226.84;;;7.32;49.16
13581;BME280;6861;46.170;7.222;2023-02-02T11:00:14;97212.97;;;7.38;47.72
13581;BME280;6861;46.170;7.222;2023-02-02T11:02:48;97216.94;;;7.65;47.88
13581;BME280;6861;46.170;7.222;2023-02-02T11:05:20;97204.91;;;8.01;47.84
13581;BME280;6861;46.170;7.222;2023-02-02T11:08:13;97207.50;;;8.56;47.88
13581;BME280;6861;46.170;7.222;2023-02-02T11:10:45;97210.25;;;9.02;47.53
13581;BME280;6861;46.170;7.222;2023-02-02T11:13:18;97220.53;;;9.39;47.12
13581;BME280;6861;46.170;7.222;2023-02-02T11:15:50;97213.25;;;9.76;46.17
13581;BME280;6861;46.170;7.222;2023-02-02T11:18:27;97203.09;;;10.03;45.58
13581;BME280;6861;46.170;7.222;2023-02-02T11:20:56;97192.63;;;10.26;45.34
13581;BME280;6861;46.170;7.222;2023-02-02T11:23:26;97183.63;;;10.50;44.49
13581;BME280;6861;46.170;7.222;2023-02-02T11:26:00;97173.53;;;10.71;44.47
13581;BME280;6861;46.170;7.222;2023-02-02T11:28:33;97182.03;;;10.78;43.93
13581;BME280;6861;46.170;7.222;2023-02-02T11:31:02;97179.28;;;10.84;43.16
13581;BME280;6861;46.170;7.222;2023-02-02T11:33:33;97173.09;;;10.91;43.12
13581;BME280;6861;46.170;7.222;2023-02-02T11:36:03;97172.94;;;10.97;43.37
13581;BME280;6861;46.170;7.222;2023-02-02T11:38:32;97169.84;;;11.00;42.54
13581;BME280;6861;46.170;7.222;2023-02-02T11:41:03;97179.63;;;11.05;43.24
13581;BME280;6861;46.170;7.222;2023-02-02T11:43:37;97180.09;;;11.19;43.12
13581;BME280;6861;46.170;7.222;2023-02-02T11:46:16;97177.56;;;11.24;42.38
13581;BME280;6861;46.170;7.222;2023-02-02T11:48:49;97158.34;;;11.18;41.87
13581;BME280;6861;46.170;7.222;2023-02-02T11:51:23;97150.88;;;11.10;42.32
13581;BME280;6861;46.170;7.222;2023-02-02T11:54:00;97150.47;;;11.01;41.52
13581;BME280;6861;46.170;7.222;2023-02-02T11:56:31;97168.41;;;10.93;41.49
13581;BME280;6861;46.170;7.222;2023-02-02T11:59:01;97146.75;;;10.80;42.07
13581;BME280;6861;46.170;7.222;2023-02-02T12:01:33;97147.69;;;10.74;41.82
13581;BME280;6861;46.170;7.222;2023-02-02T12:04:02;97132.59;;;10.65;42.07
13581;BME280;6861;46.170;7.222;2023-02-02T12:06:34;97131.53;;;10.49;42.42
13581;BME280;6861;46.170;7.222;2023-02-02T12:09:09;97145.16;;;10.34;41.98
13581;BME280;6861;46.170;7.222;2023-02-02T12:11:48;97143.25;;;10.18;42.68
13581;BME280;6861;46.170;7.222;2023-02-02T12:14:27;97134.19;;;10.09;42.76
13581;BME280;6861;46.170;7.222;2023-02-02T12:17:05;97128.28;;;10.02;42.61
13581;BME280;6861;46.170;7.222;2023-02-02T12:19:52;97130.72;;;9.92;42.82
13581;BME280;6861;46.170;7.222;2023-02-02T12:22:36;97123.44;;;9.82;43.29
13581;BME280;6861;46.170;7.222;2023-02-02T12:25:26;97120.41;;;9.73;42.94
13581;BME280;6861;46.170;7.222;2023-02-02T12:28:03;97117.13;;;9.66;43.28
13581;BME280;6861;46.170;7.222;2023-02-02T12:30:42;97094.50;;;9.60;42.95
13581;BME280;6861;46.170;7.222;2023-02-02T12:33:22;97103.03;;;9.56;42.71
13581;BME280;6861;46.170;7.222;2023-02-02T12:36:09;97098.03;;;9.54;43.01
13581;BME280;6861;46.170;7.222;2023-02-02T12:39:08;97100.44;;;9.56;43.04
13581;BME280;6861;46.170;7.222;2023-02-02T12:41:48;97094.41;;;9.55;43.20
13581;BME280;6861;46.170;7.222;2023-02-02T12:44:29;97088.16;;;9.56;43.18
13581;BME280;6861;46.170;7.222;2023-02-02T12:47:08;97097.03;;;9.55;43.34
13581;BME280;6861;46.170;7.222;2023-02-02T12:49:53;97108.03;;;9.57;43.11
13581;BME280;6861;46.170;7.222;2023-02-02T12:52:41;97096.56;;;9.58;43.68
13581;BME280;6861;46.170;7.222;2023-02-02T12:55:22;97123.81;;;9.62;43.26
13581;BME280;6861;46.170;7.222;2023-02-02T12:57:58;97118.13;;;9.65;43.21
13581;BME280;6861;46.170;7.222;2023-02-02T13:01:03;97129.72;;;9.69;43.32
13581;BME280;6861;46.170;7.222;2023-02-02T13:03:40;97119.59;;;9.73;43.29
13581;BME280;6861;46.170;7.222;2023-02-02T13:06:27;97130.06;;;9.73;42.99
13581;BME280;6861;46.170;7.222;2023-02-02T13:09:18;97128.81;;;9.75;43.53
13581;BME280;6861;46.170;7.222;2023-02-02T13:11:52;97110.06;;;9.78;42.95
13581;BME280;6861;46.170;7.222;2023-02-02T13:14:28;97115.28;;;9.78;43.16
13581;BME280;6861;46.170;7.222;2023-02-02T13:17:04;97121.06;;;9.80;43.26
13581;BME280;6861;46.170;7.222;2023-02-02T13:19:37;97116.16;;;9.84;43.16
13581;BME280;6861;46.170;7.222;2023-02-02T13:22:11;97105.94;;;9.82;43.27
13581;BME280;6861;46.170;7.222;2023-02-02T13:24:44;97117.44;;;9.81;43.41
13581;BME280;6861;46.170;7.222;2023-02-02T13:27:17;97110.94;;;9.84;43.52
13581;BME280;6861;46.170;7.222;2023-02-02T13:29:50;97114.13;;;9.86;43.23
13581;BME280;6861;46.170;7.222;2023-02-02T13:32:24;97096.38;;;9.88;42.85
13581;BME280;6861;46.170;7.222;2023-02-02T13:34:55;97114.22;;;9.91;42.87
13581;BME280;6861;46.170;7.222;2023-02-02T13:37:30;97106.63;;;9.90;43.31
13581;BME280;6861;46.170;7.222;2023-02-02T13:40:04;97112.06;;;9.88;43.50
13581;BME280;6861;46.170;7.222;2023-02-02T13:42:45;97112.88;;;9.89;43.45
13581;BME280;6861;46.170;7.222;2023-02-02T13:45:37;97127.75;;;9.88;43.67
13581;BME280;6861;46.170;7.222;2023-02-02T13:48:16;97135.03;;;9.86;43.75
13581;BME280;6861;46.170;7.222;2023-02-02T13:51:01;97118.31;;;9.87;43.72
13581;BME280;6861;46.170;7.222;2023-02-02T13:53:45;97132.66;;;9.84;43.40